TimeEDT,TemperatureF,Dew PointF,Humidity,Sea Level PressureIn,VisibilityMPH,Wind Direction,Wind SpeedMPH,Gust SpeedMPH,PrecipitationIn,Events,Conditions,WindDirDegrees,DateUTC
12:53 AM,55.9,41.0,57,30.04,10.0,North,8.1,-,N/A,,Clear,10,2012-05-17 04:53:00
1:53 AM,53.1,37.9,57,30.04,10.0,NNE,5.8,-,N/A,,Clear,20,2012-05-17 05:53:00
2:53 AM,52.0,37.9,59,30.04,10.0,NNE,6.9,-,N/A,,Clear,20,2012-05-17 06:53:00
3:53 AM,53.1,37.0,55,30.05,10.0,NE,4.6,-,N/A,,Clear,40,2012-05-17 07:53:00
4:53 AM,52.0,37.9,59,30.06,10.0,ENE,3.5,-,N/A,,Clear,70,2012-05-17 08:53:00
5:53 AM,50.0,39.0,66,30.08,10.0,Calm,Calm,-,N/A,,Clear,0,2012-05-17 09:53:00
6:53 AM,51.1,39.9,66,30.09,10.0,East,4.6,-,N/A,,Clear,90,2012-05-17 10:53:00
7:53 AM,55.0,39.9,57,30.11,10.0,East,6.9,-,N/A,,Clear,90,2012-05-17 11:53:00
8:53 AM,59.0,39.9,49,30.12,10.0,East,11.5,-,N/A,,Clear,100,2012-05-17 12:53:00
9:53 AM,62.1,39.9,44,30.12,10.0,East,10.4,18.4,N/A,,Clear,90,2012-05-17 13:53:00
10:53 AM,64.0,39.0,40,30.12,10.0,East,13.8,-,N/A,,Clear,90,2012-05-17 14:53:00
11:53 AM,68.0,41.0,37,30.11,10.0,NE,8.1,-,N/A,,Clear,50,2012-05-17 15:53:00
12:53 PM,70.0,39.9,33,30.11,10.0,NE,9.2,16.1,N/A,,Clear,50,2012-05-17 16:53:00
1:53 PM,71.1,39.0,31,30.09,10.0,ENE,10.4,-,N/A,,Clear,60,2012-05-17 17:53:00
2:53 PM,73.0,41.0,31,30.07,10.0,NE,9.2,-,N/A,,Clear,50,2012-05-17 18:53:00
3:53 PM,73.9,37.9,27,30.06,10.0,East,8.1,-,N/A,,Clear,80,2012-05-17 19:53:00
4:53 PM,75.0,37.9,26,30.05,10.0,NE,8.1,-,N/A,,Clear,40,2012-05-17 20:53:00
5:53 PM,73.9,37.9,27,30.04,10.0,ENE,8.1,-,N/A,,Clear,70,2012-05-17 21:53:00
6:53 PM,73.0,37.9,28,30.04,10.0,East,9.2,-,N/A,,Clear,80,2012-05-17 22:53:00
7:53 PM,71.1,37.0,29,30.04,10.0,East,8.1,-,N/A,,Clear,90,2012-05-17 23:53:00
8:53 PM,64.0,41.0,43,30.04,10.0,East,3.5,-,N/A,,Clear,80,2012-05-18 00:53:00
9:53 PM,57.0,44.1,62,30.04,10.0,Calm,Calm,-,N/A,,Clear,0,2012-05-18 01:53:00
10:53 PM,55.0,42.1,62,30.06,10.0,Calm,Calm,-,N/A,,Clear,0,2012-05-18 02:53:00
11:53 PM,52.0,44.1,74,30.06,10.0,Calm,Calm,-,N/A,,Clear,0,2012-05-18 03:53:00